createdAt,value
2023-12-22T00:02:49.465Z,75.86
2023-12-22T00:07:46.233Z,76.43
2023-12-22T00:12:43.525Z,76.14
2023-12-22T00:17:40.142Z,75.21
2023-12-22T00:22:36.736Z,75.08
2023-12-22T00:27:33.315Z,74.52
2023-12-22T00:32:30.557Z,74.63
2023-12-22T00:37:27.177Z,74.59
2023-12-22T00:42:23.752Z,74.01
2023-12-22T00:47:20.253Z,74.24
2023-12-22T00:52:17.494Z,74.02
2023-12-22T00:57:14.584Z,75.02
2023-12-22T01:02:11.256Z,75.48
2023-12-22T01:07:08.583Z,75.27
2023-12-22T01:12:07.151Z,74.61
2023-12-22T01:17:03.932Z,75.74
2023-12-22T01:22:00.434Z,75.50
2023-12-22T01:26:56.984Z,76.00
2023-12-22T01:31:54.291Z,76.54
2023-12-22T01:36:51.025Z,75.15
2023-12-22T01:41:47.691Z,75.01
2023-12-22T01:46:44.308Z,74.49
2023-12-22T01:51:41.836Z,74.63
2023-12-22T01:56:38.514Z,74.17
2023-12-22T02:01:36.408Z,74.42
2023-12-22T02:06:33.836Z,74.82
2023-12-22T02:11:30.980Z,74.70
2023-12-22T02:16:32.209Z,73.96
2023-12-22T02:21:28.775Z,74.02
2023-12-22T02:26:29.891Z,72.45
2023-12-22T02:31:34.750Z,72.23
2023-12-22T02:36:32.544Z,71.88
2023-12-22T02:41:30.034Z,72.32
2023-12-22T02:46:26.613Z,71.48
2023-12-22T02:51:23.130Z,71.54
2023-12-22T02:56:19.612Z,71.15
2023-12-22T03:01:16.800Z,72.02
2023-12-22T03:06:13.371Z,70.91
2023-12-22T03:11:10.068Z,69.72
2023-12-22T03:16:09.016Z,71.71
2023-12-22T03:21:06.192Z,71.92
2023-12-22T03:26:03.897Z,70.35
2023-12-22T03:31:00.572Z,72.21
2023-12-22T03:35:57.265Z,71.24
2023-12-22T03:40:54.519Z,71.74
2023-12-22T03:45:51.180Z,71.09
2023-12-22T03:50:47.689Z,71.71
2023-12-22T03:55:44.284Z,71.63
2023-12-22T04:00:41.551Z,71.50
2023-12-22T04:05:38.697Z,71.84
2023-12-22T04:10:35.267Z,71.21
2023-12-22T04:15:31.871Z,70.84
2023-12-22T04:20:32.168Z,70.35
2023-12-22T04:25:28.824Z,70.93
2023-12-22T04:30:27.308Z,69.77
2023-12-22T04:35:23.869Z,70.14
2023-12-22T04:40:21.045Z,70.70
2023-12-22T04:45:19.741Z,70.47
2023-12-22T04:50:16.248Z,72.39
2023-12-22T04:55:12.888Z,71.32
2023-12-22T05:00:10.576Z,71.47
2023-12-22T05:05:08.653Z,72.30
2023-12-22T05:10:05.325Z,72.60
2023-12-22T05:15:01.890Z,72.54
2023-12-22T05:19:59.148Z,73.84
2023-12-22T05:24:55.587Z,74.16
2023-12-22T05:29:52.201Z,73.99
2023-12-22T05:34:48.838Z,72.25
2023-12-22T05:39:46.235Z,71.49
2023-12-22T05:44:42.844Z,70.56
2023-12-22T05:49:40.572Z,70.05
2023-12-22T05:54:38.515Z,70.99
2023-12-22T05:59:35.875Z,73.11
2023-12-22T06:04:32.501Z,73.42
2023-12-22T06:09:29.163Z,74.95
2023-12-22T06:14:25.884Z,75.59
2023-12-22T06:19:25.544Z,75.65
2023-12-22T06:24:22.140Z,77.79
2023-12-22T06:29:18.815Z,77.32
2023-12-22T06:34:15.493Z,73.78
2023-12-22T06:39:12.809Z,73.85
2023-12-22T06:44:11.060Z,78.35
2023-12-22T06:49:07.894Z,76.49
2023-12-22T06:54:05.684Z,72.02
2023-12-22T06:59:03.094Z,69.14
2023-12-22T07:04:01.105Z,67.64
2023-12-22T07:08:58.375Z,65.76
2023-12-22T07:14:12.600Z,65.11
2023-12-22T07:19:11.473Z,66.63
2023-12-22T07:24:08.703Z,68.08
2023-12-22T07:29:05.326Z,68.91
2023-12-22T07:34:02.245Z,69.48
2023-12-22T07:39:01.163Z,70.33
2023-12-22T07:43:57.788Z,70.57
2023-12-22T07:49:04.862Z,71.44
2023-12-22T07:54:02.348Z,71.38
2023-12-22T07:59:10.091Z,72.01
2023-12-22T08:04:16.068Z,70.12
2023-12-22T08:09:13.581Z,70.10
2023-12-22T08:14:10.108Z,72.93
2023-12-22T08:19:06.939Z,70.30
2023-12-22T08:24:06.600Z,69.01
2023-12-22T08:29:03.869Z,68.75
2023-12-22T08:34:00.514Z,68.57
2023-12-22T08:38:57.307Z,67.67
2023-12-22T08:43:54.441Z,64.67
2023-12-22T08:48:51.955Z,64.84
2023-12-22T08:53:50.633Z,63.66
2023-12-22T08:58:47.144Z,63.49
2023-12-22T09:03:46.373Z,62.79
2023-12-22T09:08:44.088Z,62.19
2023-12-22T09:13:40.887Z,62.11
2023-12-22T09:18:39.967Z,61.70
2023-12-22T09:23:46.139Z,63.43
2023-12-22T09:28:46.298Z,65.20
2023-12-22T09:33:47.085Z,65.52
2023-12-22T09:38:53.321Z,67.28
2023-12-22T09:43:58.905Z,68.26
2023-12-22T09:48:55.891Z,67.66
2023-12-22T09:53:53.661Z,68.03
2023-12-22T09:58:54.730Z,68.82
2023-12-22T10:03:52.342Z,69.67
2023-12-22T10:08:51.964Z,69.93
2023-12-22T10:13:49.574Z,70.11
2023-12-22T10:18:47.149Z,71.05
2023-12-22T10:23:43.965Z,70.14
2023-12-22T10:28:41.958Z,70.33
2023-12-22T10:33:38.691Z,71.18
2023-12-22T10:38:36.205Z,69.51
2023-12-22T10:43:37.548Z,71.07
2023-12-22T10:48:34.634Z,72.09
2023-12-22T10:53:31.621Z,70.98
2023-12-22T10:58:30.113Z,72.08
2023-12-22T11:03:27.754Z,73.40
2023-12-22T11:08:25.623Z,74.04
2023-12-22T11:13:23.280Z,75.28
2023-12-22T11:18:21.389Z,77.35
2023-12-22T11:23:20.581Z,77.17
2023-12-22T11:28:18.598Z,78.62
2023-12-22T11:33:15.423Z,79.16
2023-12-22T11:38:14.207Z,79.23
2023-12-22T11:43:11.168Z,79.74
2023-12-22T11:48:09.031Z,79.30
2023-12-22T11:53:23.290Z,79.75
2023-12-22T11:58:51.950Z,79.28
2023-12-22T12:03:52.304Z,78.84
2023-12-22T12:08:49.798Z,78.78
2023-12-22T12:13:47.229Z,78.63
2023-12-22T12:18:44.455Z,79.75
2023-12-22T12:23:42.044Z,79.98
2023-12-22T12:28:39.574Z,79.58
2023-12-22T12:33:36.779Z,79.34
2023-12-22T12:38:37.972Z,79.26
2023-12-22T12:43:34.559Z,79.32
2023-12-22T12:48:32.018Z,79.70
2023-12-22T12:53:42.611Z,79.39
2023-12-22T12:58:41.759Z,78.15
2023-12-22T13:03:54.163Z,78.70
2023-12-22T13:08:51.886Z,78.25
2023-12-22T13:13:49.420Z,76.37
2023-12-22T13:18:49.470Z,75.82
2023-12-22T13:23:46.138Z,75.63
2023-12-22T13:28:43.443Z,74.41
2023-12-22T13:33:40.607Z,73.17
2023-12-22T13:38:40.321Z,72.57
2023-12-22T13:43:38.294Z,71.67
2023-12-22T13:48:40.381Z,71.77
2023-12-22T13:53:50.109Z,71.14
2023-12-22T13:58:47.511Z,70.65
2023-12-22T14:03:45.433Z,69.92
2023-12-22T14:08:42.327Z,70.39
2023-12-22T14:13:39.506Z,70.29
2023-12-22T14:18:36.275Z,69.72
2023-12-22T14:23:33.495Z,69.04
2023-12-22T14:28:30.311Z,68.91
2023-12-22T14:33:27.165Z,68.84
2023-12-22T14:38:23.942Z,69.52
2023-12-22T14:43:21.255Z,68.50
2023-12-22T14:48:17.822Z,67.31
2023-12-22T14:53:15.272Z,66.96
2023-12-22T14:58:13.307Z,67.40
2023-12-22T15:03:10.692Z,66.84
2023-12-22T15:08:07.920Z,66.01
2023-12-22T15:13:04.667Z,66.82
2023-12-22T15:18:01.315Z,67.60
2023-12-22T15:22:58.606Z,67.64
2023-12-22T15:27:55.110Z,67.42
2023-12-22T15:32:52.061Z,66.78
2023-12-22T15:37:48.826Z,67.20
2023-12-22T15:42:46.289Z,65.79
2023-12-22T15:47:43.093Z,66.79
2023-12-22T15:52:39.935Z,67.04
2023-12-22T15:57:36.543Z,66.61
2023-12-22T16:02:34.269Z,66.20
2023-12-22T16:07:32.378Z,66.26
2023-12-22T16:12:30.147Z,66.92
2023-12-22T16:17:26.630Z,66.85
2023-12-22T16:22:23.900Z,66.82
2023-12-22T16:27:20.435Z,67.82
2023-12-22T16:32:17.189Z,67.88
2023-12-22T16:37:14.512Z,68.32
2023-12-22T16:42:11.798Z,68.54
2023-12-22T16:47:08.384Z,67.02
2023-12-22T16:52:05.648Z,66.97
2023-12-22T16:57:02.307Z,65.50
2023-12-22T17:02:13.476Z,66.69
2023-12-22T17:07:16.404Z,65.95
2023-12-22T17:12:13.134Z,66.11
2023-12-22T17:17:10.508Z,65.17
2023-12-22T17:22:07.520Z,64.70
2023-12-22T17:27:06.192Z,64.83
2023-12-22T17:32:07.435Z,64.16
2023-12-22T17:37:04.962Z,64.72
2023-12-22T17:42:01.601Z,65.55
2023-12-22T17:47:03.150Z,65.99
2023-12-22T17:51:59.844Z,65.86
2023-12-22T17:57:01.152Z,65.91
2023-12-22T18:01:57.881Z,66.34
2023-12-22T18:06:56.028Z,66.59
2023-12-22T18:11:54.167Z,66.52
2023-12-22T18:16:51.694Z,66.60
2023-12-22T18:21:51.488Z,66.29
2023-12-22T18:26:48.132Z,66.80
2023-12-22T18:31:49.718Z,67.53
2023-12-22T18:36:46.965Z,68.19
2023-12-22T18:41:43.514Z,68.26
2023-12-22T18:46:40.244Z,67.59
2023-12-22T18:51:36.762Z,67.45
2023-12-22T18:56:33.997Z,66.26
2023-12-22T19:01:40.272Z,65.21
2023-12-22T19:06:44.765Z,65.16
2023-12-22T19:11:44.451Z,65.19
2023-12-22T19:16:42.391Z,65.17
2023-12-22T19:21:39.203Z,65.46
2023-12-22T19:26:37.475Z,66.09
2023-12-22T19:31:35.835Z,66.66
2023-12-22T19:36:48.603Z,66.09
2023-12-22T19:41:45.057Z,66.92
2023-12-22T19:46:42.391Z,66.28
2023-12-22T19:51:38.942Z,66.36
2023-12-22T19:56:35.471Z,67.21
2023-12-22T20:01:32.088Z,66.90
2023-12-22T20:06:33.017Z,67.65
2023-12-22T20:11:29.735Z,67.26
2023-12-22T20:16:27.130Z,67.31
2023-12-22T20:21:23.776Z,67.77
2023-12-22T20:26:21.063Z,68.09
2023-12-22T20:31:17.670Z,68.26
2023-12-22T20:36:14.641Z,69.07
2023-12-22T20:41:11.444Z,69.50
2023-12-22T20:46:08.689Z,68.50
2023-12-22T20:51:06.099Z,68.93
2023-12-22T20:56:02.803Z,68.42
2023-12-22T21:00:59.424Z,69.43
2023-12-22T21:06:00.976Z,69.92
2023-12-22T21:10:58.212Z,69.87
2023-12-22T21:15:54.979Z,71.53
2023-12-22T21:20:51.743Z,71.81
2023-12-22T21:25:49.052Z,72.15
2023-12-22T21:30:45.574Z,71.18
2023-12-22T21:35:42.167Z,70.13
2023-12-22T21:40:39.052Z,70.21
2023-12-22T21:45:38.332Z,70.50
2023-12-22T21:50:35.925Z,69.95
2023-12-22T21:55:32.470Z,70.36
2023-12-22T22:00:30.288Z,70.16
2023-12-22T22:05:28.769Z,71.06
2023-12-22T22:10:25.297Z,70.92
2023-12-22T22:15:21.931Z,71.62
2023-12-22T22:20:18.987Z,72.05
2023-12-22T22:25:16.325Z,70.55
2023-12-22T22:30:12.971Z,70.08
2023-12-22T22:35:09.501Z,70.52
2023-12-22T22:40:06.653Z,68.75
2023-12-22T22:45:04.104Z,69.29
2023-12-22T22:50:00.784Z,69.39
2023-12-22T22:54:57.502Z,69.43
2023-12-22T22:59:54.107Z,70.43
2023-12-22T23:04:51.317Z,69.64
2023-12-22T23:09:48.131Z,70.46
2023-12-22T23:14:44.691Z,70.77
2023-12-22T23:19:41.997Z,70.45
2023-12-22T23:24:39.214Z,70.95
2023-12-22T23:29:35.925Z,70.78
2023-12-22T23:34:32.475Z,70.75
2023-12-22T23:39:29.983Z,70.62
2023-12-22T23:44:27.273Z,69.37
2023-12-22T23:49:23.794Z,70.87
2023-12-22T23:54:20.470Z,70.98
2023-12-22T23:59:17.080Z,71.05
